sensor_id;sensor_type;location;lat;lon;timestamp;P1;durP1;ratioP1;P2;durP2;ratioP2
17927;SDS011;9089;58.396;15.544;2022-07-19T00:01:57;6.22;;;5.25;;
17927;SDS011;9089;58.396;15.544;2022-07-19T00:04:23;6.38;;;5.47;;
17927;SDS011;9089;58.396;15.544;2022-07-19T00:06:48;6.80;;;5.60;;
17927;SDS011;9089;58.396;15.544;2022-07-19T00:09:14;6.60;;;5.60;;
17927;SDS011;9089;58.396;15.544;2022-07-19T00:11:40;7.35;;;6.22;;
17927;SDS011;9089;58.396;15.544;2022-07-19T00:14:06;7.50;;;5.95;;
17927;SDS011;9089;58.396;15.544;2022-07-19T00:16:33;7.60;;;6.32;;
17927;SDS011;9089;58.396;15.544;2022-07-19T00:18:58;8.40;;;6.22;;
17927;SDS011;9089;58.396;15.544;2022-07-19T00:21:24;8.85;;;6.03;;
17927;SDS011;9089;58.396;15.544;2022-07-19T00:23:50;5.95;;;5.35;;
17927;SDS011;9089;58.396;15.544;2022-07-19T00:26:15;5.93;;;5.22;;
17927;SDS011;9089;58.396;15.544;2022-07-19T00:28:41;5.82;;;5.22;;
17927;SDS011;9089;58.396;15.544;2022-07-19T00:31:07;10.15;;;6.03;;
17927;SDS011;9089;58.396;15.544;2022-07-19T00:33:34;9.40;;;6.00;;
17927;SDS011;9089;58.396;15.544;2022-07-19T00:36:00;6.50;;;5.45;;
17927;SDS011;9089;58.396;15.544;2022-07-19T00:38:26;6.65;;;5.88;;
17927;SDS011;9089;58.396;15.544;2022-07-19T00:40:51;6.05;;;5.07;;
17927;SDS011;9089;58.396;15.544;2022-07-19T00:43:17;9.68;;;5.47;;
17927;SDS011;9089;58.396;15.544;2022-07-19T00:45:43;7.40;;;6.13;;
17927;SDS011;9089;58.396;15.544;2022-07-19T00:48:08;8.40;;;5.82;;
17927;SDS011;9089;58.396;15.544;2022-07-19T00:50:36;8.50;;;5.88;;
17927;SDS011;9089;58.396;15.544;2022-07-19T00:53:02;9.88;;;6.32;;
17927;SDS011;9089;58.396;15.544;2022-07-19T00:55:31;5.80;;;5.20;;
17927;SDS011;9089;58.396;15.544;2022-07-19T00:57:58;6.05;;;5.32;;
17927;SDS011;9089;58.396;15.544;2022-07-19T01:00:25;6.32;;;5.60;;
17927;SDS011;9089;58.396;15.544;2022-07-19T01:02:53;8.05;;;5.45;;
17927;SDS011;9089;58.396;15.544;2022-07-19T01:05:19;5.97;;;5.20;;
17927;SDS011;9089;58.396;15.544;2022-07-19T01:07:47;9.00;;;5.95;;
17927;SDS011;9089;58.396;15.544;2022-07-19T01:10:13;8.23;;;5.63;;
17927;SDS011;9089;58.396;15.544;2022-07-19T01:12:40;7.97;;;5.75;;
17927;SDS011;9089;58.396;15.544;2022-07-19T01:15:15;7.28;;;5.68;;
17927;SDS011;9089;58.396;15.544;2022-07-19T01:17:41;6.20;;;5.50;;
17927;SDS011;9089;58.396;15.544;2022-07-19T01:20:08;8.90;;;6.78;;
17927;SDS011;9089;58.396;15.544;2022-07-19T01:22:36;7.05;;;5.88;;
17927;SDS011;9089;58.396;15.544;2022-07-19T01:25:02;6.22;;;5.53;;
17927;SDS011;9089;58.396;15.544;2022-07-19T01:27:28;6.05;;;5.18;;
17927;SDS011;9089;58.396;15.544;2022-07-19T01:29:54;7.57;;;5.85;;
17927;SDS011;9089;58.396;15.544;2022-07-19T01:32:20;6.18;;;5.50;;
17927;SDS011;9089;58.396;15.544;2022-07-19T01:34:45;5.63;;;5.13;;
17927;SDS011;9089;58.396;15.544;2022-07-19T01:37:11;7.63;;;5.82;;
17927;SDS011;9089;58.396;15.544;2022-07-19T01:39:38;7.10;;;5.60;;
17927;SDS011;9089;58.396;15.544;2022-07-19T01:42:04;6.07;;;5.50;;
17927;SDS011;9089;58.396;15.544;2022-07-19T01:44:30;5.93;;;5.35;;
17927;SDS011;9089;58.396;15.544;2022-07-19T01:46:55;7.53;;;5.82;;
17927;SDS011;9089;58.396;15.544;2022-07-19T01:49:21;7.40;;;6.50;;
17927;SDS011;9089;58.396;15.544;2022-07-19T01:51:47;9.15;;;6.90;;
17927;SDS011;9089;58.396;15.544;2022-07-19T01:54:13;8.93;;;6.28;;
17927;SDS011;9089;58.396;15.544;2022-07-19T01:56:42;6.65;;;5.95;;
17927;SDS011;9089;58.396;15.544;2022-07-19T01:59:08;8.30;;;7.03;;
17927;SDS011;9089;58.396;15.544;2022-07-19T02:01:34;8.27;;;7.47;;
17927;SDS011;9089;58.396;15.544;2022-07-19T02:04:00;7.32;;;6.63;;
17927;SDS011;9089;58.396;15.544;2022-07-19T02:06:25;7.95;;;6.55;;
17927;SDS011;9089;58.396;15.544;2022-07-19T02:08:52;7.10;;;6.40;;
17927;SDS011;9089;58.396;15.544;2022-07-19T02:11:17;7.10;;;6.38;;
17927;SDS011;9089;58.396;15.544;2022-07-19T02:14:02;9.85;;;6.85;;
17927;SDS011;9089;58.396;15.544;2022-07-19T02:16:28;6.70;;;6.00;;
17927;SDS011;9089;58.396;15.544;2022-07-19T02:18:54;7.63;;;5.97;;
17927;SDS011;9089;58.396;15.544;2022-07-19T02:21:20;7.53;;;5.88;;
17927;SDS011;9089;58.396;15.544;2022-07-19T02:23:46;9.30;;;6.88;;
17927;SDS011;9089;58.396;15.544;2022-07-19T02:26:11;7.40;;;6.38;;
17927;SDS011;9089;58.396;15.544;2022-07-19T02:28:37;8.85;;;6.65;;
17927;SDS011;9089;58.396;15.544;2022-07-19T02:31:04;9.13;;;6.75;;
17927;SDS011;9089;58.396;15.544;2022-07-19T02:33:30;9.63;;;6.85;;
17927;SDS011;9089;58.396;15.544;2022-07-19T02:35:56;8.65;;;7.15;;
17927;SDS011;9089;58.396;15.544;2022-07-19T02:38:22;13.57;;;7.50;;
17927;SDS011;9089;58.396;15.544;2022-07-19T02:40:48;9.20;;;7.78;;
17927;SDS011;9089;58.396;15.544;2022-07-19T02:43:14;10.10;;;8.05;;
17927;SDS011;9089;58.396;15.544;2022-07-19T02:45:40;8.25;;;6.90;;
17927;SDS011;9089;58.396;15.544;2022-07-19T02:48:07;11.00;;;7.80;;
17927;SDS011;9089;58.396;15.544;2022-07-19T02:50:33;9.35;;;7.32;;
17927;SDS011;9089;58.396;15.544;2022-07-19T02:53:00;8.45;;;7.50;;
17927;SDS011;9089;58.396;15.544;2022-07-19T02:55:26;7.65;;;6.95;;
17927;SDS011;9089;58.396;15.544;2022-07-19T02:57:52;9.38;;;7.65;;
17927;SDS011;9089;58.396;15.544;2022-07-19T03:00:17;9.43;;;6.78;;
17927;SDS011;9089;58.396;15.544;2022-07-19T03:02:44;8.52;;;7.05;;
17927;SDS011;9089;58.396;15.544;2022-07-19T03:05:11;10.68;;;7.85;;
17927;SDS011;9089;58.396;15.544;2022-07-19T03:07:37;8.55;;;7.65;;
17927;SDS011;9089;58.396;15.544;2022-07-19T03:10:03;7.57;;;6.82;;
17927;SDS011;9089;58.396;15.544;2022-07-19T03:12:30;9.20;;;7.13;;
17927;SDS011;9089;58.396;15.544;2022-07-19T03:14:55;9.85;;;7.50;;
17927;SDS011;9089;58.396;15.544;2022-07-19T03:17:21;12.05;;;7.65;;
17927;SDS011;9089;58.396;15.544;2022-07-19T03:19:47;11.57;;;7.72;;
17927;SDS011;9089;58.396;15.544;2022-07-19T03:22:14;9.63;;;6.82;;
17927;SDS011;9089;58.396;15.544;2022-07-19T03:24:40;9.18;;;7.30;;
17927;SDS011;9089;58.396;15.544;2022-07-19T03:27:06;11.68;;;8.05;;
17927;SDS011;9089;58.396;15.544;2022-07-19T03:29:32;10.20;;;8.18;;
17927;SDS011;9089;58.396;15.544;2022-07-19T03:31:57;11.68;;;7.85;;
17927;SDS011;9089;58.396;15.544;2022-07-19T03:34:23;9.30;;;7.97;;
17927;SDS011;9089;58.396;15.544;2022-07-19T03:36:49;8.70;;;7.80;;
17927;SDS011;9089;58.396;15.544;2022-07-19T03:39:16;10.73;;;7.38;;
17927;SDS011;9089;58.396;15.544;2022-07-19T03:41:41;9.02;;;8.07;;
17927;SDS011;9089;58.396;15.544;2022-07-19T03:44:07;9.15;;;7.53;;
17927;SDS011;9089;58.396;15.544;2022-07-19T03:46:33;10.02;;;8.60;;
17927;SDS011;9089;58.396;15.544;2022-07-19T03:48:59;9.27;;;8.23;;
17927;SDS011;9089;58.396;15.544;2022-07-19T03:51:24;11.23;;;8.52;;
17927;SDS011;9089;58.396;15.544;2022-07-19T03:53:50;8.10;;;7.25;;
17927;SDS011;9089;58.396;15.544;2022-07-19T03:56:17;12.18;;;8.20;;
17927;SDS011;9089;58.396;15.544;2022-07-19T03:58:45;10.13;;;8.20;;
17927;SDS011;9089;58.396;15.544;2022-07-19T04:01:12;8.85;;;7.55;;
17927;SDS011;9089;58.396;15.544;2022-07-19T04:03:38;10.70;;;8.20;;
17927;SDS011;9089;58.396;15.544;2022-07-19T04:06:04;11.35;;;7.93;;
17927;SDS011;9089;58.396;15.544;2022-07-19T04:08:30;11.55;;;8.25;;
17927;SDS011;9089;58.396;15.544;2022-07-19T04:10:56;10.20;;;8.20;;
17927;SDS011;9089;58.396;15.544;2022-07-19T04:13:23;14.32;;;8.73;;
17927;SDS011;9089;58.396;15.544;2022-07-19T04:15:49;12.70;;;8.13;;
17927;SDS011;9089;58.396;15.544;2022-07-19T04:18:15;11.23;;;8.40;;
17927;SDS011;9089;58.396;15.544;2022-07-19T04:20:41;10.88;;;9.45;;
17927;SDS011;9089;58.396;15.544;2022-07-19T04:23:07;11.80;;;8.35;;
17927;SDS011;9089;58.396;15.544;2022-07-19T04:25:33;15.57;;;9.85;;
17927;SDS011;9089;58.396;15.544;2022-07-19T04:27:59;14.23;;;9.55;;
17927;SDS011;9089;58.396;15.544;2022-07-19T04:30:26;11.57;;;9.65;;
17927;SDS011;9089;58.396;15.544;2022-07-19T04:32:51;10.40;;;8.30;;
17927;SDS011;9089;58.396;15.544;2022-07-19T04:35:17;12.68;;;9.02;;
17927;SDS011;9089;58.396;15.544;2022-07-19T04:37:43;15.90;;;9.75;;
17927;SDS011;9089;58.396;15.544;2022-07-19T04:40:09;12.40;;;9.30;;
17927;SDS011;9089;58.396;15.544;2022-07-19T04:42:35;15.10;;;9.70;;
17927;SDS011;9089;58.396;15.544;2022-07-19T04:45:03;11.90;;;8.88;;
17927;SDS011;9089;58.396;15.544;2022-07-19T04:47:31;12.02;;;9.25;;
17927;SDS011;9089;58.396;15.544;2022-07-19T04:49:57;16.73;;;10.38;;
17927;SDS011;9089;58.396;15.544;2022-07-19T04:52:23;14.88;;;9.75;;
17927;SDS011;9089;58.396;15.544;2022-07-19T04:54:48;11.55;;;9.75;;
17927;SDS011;9089;58.396;15.544;2022-07-19T04:57:14;10.05;;;8.73;;
17927;SDS011;9089;58.396;15.544;2022-07-19T04:59:40;15.35;;;8.85;;
17927;SDS011;9089;58.396;15.544;2022-07-19T05:02:06;12.75;;;9.30;;
17927;SDS011;9089;58.396;15.544;2022-07-19T05:04:33;10.75;;;8.48;;
17927;SDS011;9089;58.396;15.544;2022-07-19T05:06:59;13.20;;;9.63;;
17927;SDS011;9089;58.396;15.544;2022-07-19T05:09:24;12.57;;;8.63;;
17927;SDS011;9089;58.396;15.544;2022-07-19T05:11:51;13.75;;;9.18;;
17927;SDS011;9089;58.396;15.544;2022-07-19T05:14:17;13.35;;;8.52;;
17927;SDS011;9089;58.396;15.544;2022-07-19T05:16:43;15.57;;;9.30;;
17927;SDS011;9089;58.396;15.544;2022-07-19T05:19:09;12.27;;;8.82;;
17927;SDS011;9089;58.396;15.544;2022-07-19T05:21:36;10.57;;;8.73;;
17927;SDS011;9089;58.396;15.544;2022-07-19T05:24:02;13.73;;;8.25;;
17927;SDS011;9089;58.396;15.544;2022-07-19T05:26:28;9.60;;;7.97;;
17927;SDS011;9089;58.396;15.544;2022-07-19T05:28:55;12.60;;;8.50;;
17927;SDS011;9089;58.396;15.544;2022-07-19T05:31:21;8.85;;;7.50;;
17927;SDS011;9089;58.396;15.544;2022-07-19T05:33:46;12.50;;;8.18;;
17927;SDS011;9089;58.396;15.544;2022-07-19T05:36:12;9.00;;;7.53;;
17927;SDS011;9089;58.396;15.544;2022-07-19T05:38:39;11.30;;;7.75;;
17927;SDS011;9089;58.396;15.544;2022-07-19T05:41:05;12.10;;;7.50;;
17927;SDS011;9089;58.396;15.544;2022-07-19T05:43:31;11.65;;;7.90;;
17927;SDS011;9089;58.396;15.544;2022-07-19T05:45:57;9.32;;;8.35;;
17927;SDS011;9089;58.396;15.544;2022-07-19T05:48:22;12.05;;;8.48;;
17927;SDS011;9089;58.396;15.544;2022-07-19T05:50:48;10.23;;;8.63;;
17927;SDS011;9089;58.396;15.544;2022-07-19T05:53:14;13.25;;;7.93;;
17927;SDS011;9089;58.396;15.544;2022-07-19T05:55:44;13.27;;;8.93;;
17927;SDS011;9089;58.396;15.544;2022-07-19T05:58:09;15.90;;;7.90;;
17927;SDS011;9089;58.396;15.544;2022-07-19T06:00:35;11.90;;;8.02;;
17927;SDS011;9089;58.396;15.544;2022-07-19T06:03:01;10.27;;;7.75;;
17927;SDS011;9089;58.396;15.544;2022-07-19T06:05:27;9.45;;;6.88;;
17927;SDS011;9089;58.396;15.544;2022-07-19T06:07:52;9.75;;;6.72;;
17927;SDS011;9089;58.396;15.544;2022-07-19T06:10:18;10.18;;;8.15;;
17927;SDS011;9089;58.396;15.544;2022-07-19T06:12:45;11.00;;;8.02;;
17927;SDS011;9089;58.396;15.544;2022-07-19T06:15:11;11.02;;;7.10;;
17927;SDS011;9089;58.396;15.544;2022-07-19T06:17:37;11.05;;;7.75;;
17927;SDS011;9089;58.396;15.544;2022-07-19T06:20:03;9.52;;;7.13;;
17927;SDS011;9089;58.396;15.544;2022-07-19T06:22:30;11.00;;;7.63;;
17927;SDS011;9089;58.396;15.544;2022-07-19T06:24:56;12.80;;;7.80;;
17927;SDS011;9089;58.396;15.544;2022-07-19T06:27:22;13.80;;;7.43;;
17927;SDS011;9089;58.396;15.544;2022-07-19T06:29:49;9.35;;;7.57;;
17927;SDS011;9089;58.396;15.544;2022-07-19T06:32:15;13.27;;;7.72;;
17927;SDS011;9089;58.396;15.544;2022-07-19T06:34:41;11.57;;;7.75;;
17927;SDS011;9089;58.396;15.544;2022-07-19T06:37:06;14.82;;;7.68;;
17927;SDS011;9089;58.396;15.544;2022-07-19T06:39:32;9.45;;;6.88;;
17927;SDS011;9089;58.396;15.544;2022-07-19T06:41:58;9.73;;;7.20;;
17927;SDS011;9089;58.396;15.544;2022-07-19T06:44:24;9.80;;;7.10;;
17927;SDS011;9089;58.396;15.544;2022-07-19T06:46:51;9.45;;;7.68;;
17927;SDS011;9089;58.396;15.544;2022-07-19T06:49:16;14.25;;;7.78;;
17927;SDS011;9089;58.396;15.544;2022-07-19T06:51:42;8.70;;;6.78;;
17927;SDS011;9089;58.396;15.544;2022-07-19T06:54:08;11.00;;;6.88;;
17927;SDS011;9089;58.396;15.544;2022-07-19T06:56:33;11.73;;;6.80;;
17927;SDS011;9089;58.396;15.544;2022-07-19T06:58:59;10.05;;;7.45;;
17927;SDS011;9089;58.396;15.544;2022-07-19T07:01:25;11.57;;;7.32;;
17927;SDS011;9089;58.396;15.544;2022-07-19T07:03:52;11.07;;;7.00;;
17927;SDS011;9089;58.396;15.544;2022-07-19T07:06:18;9.65;;;6.75;;
17927;SDS011;9089;58.396;15.544;2022-07-19T07:08:43;9.68;;;7.32;;
17927;SDS011;9089;58.396;15.544;2022-07-19T07:11:09;10.32;;;7.13;;
17927;SDS011;9089;58.396;15.544;2022-07-19T07:13:35;9.80;;;6.80;;
17927;SDS011;9089;58.396;15.544;2022-07-19T07:16:01;11.40;;;7.53;;
17927;SDS011;9089;58.396;15.544;2022-07-19T07:18:27;9.88;;;6.53;;
17927;SDS011;9089;58.396;15.544;2022-07-19T07:20:54;10.68;;;7.55;;
17927;SDS011;9089;58.396;15.544;2022-07-19T07:23:19;9.38;;;7.72;;
17927;SDS011;9089;58.396;15.544;2022-07-19T07:25:45;11.95;;;7.90;;
17927;SDS011;9089;58.396;15.544;2022-07-19T07:28:11;12.32;;;7.28;;
17927;SDS011;9089;58.396;15.544;2022-07-19T07:30:36;10.52;;;7.65;;
17927;SDS011;9089;58.396;15.544;2022-07-19T07:33:02;12.48;;;7.80;;
17927;SDS011;9089;58.396;15.544;2022-07-19T07:35:28;9.25;;;7.70;;
17927;SDS011;9089;58.396;15.544;2022-07-19T07:37:55;9.15;;;7.70;;
17927;SDS011;9089;58.396;15.544;2022-07-19T07:40:21;13.20;;;8.02;;
17927;SDS011;9089;58.396;15.544;2022-07-19T07:42:47;9.32;;;7.90;;
17927;SDS011;9089;58.396;15.544;2022-07-19T07:45:12;9.60;;;7.00;;
17927;SDS011;9089;58.396;15.544;2022-07-19T07:47:39;11.23;;;7.28;;
17927;SDS011;9089;58.396;15.544;2022-07-19T07:50:06;12.52;;;7.07;;
17927;SDS011;9089;58.396;15.544;2022-07-19T07:52:32;10.98;;;7.88;;
17927;SDS011;9089;58.396;15.544;2022-07-19T07:54:59;11.18;;;6.88;;
17927;SDS011;9089;58.396;15.544;2022-07-19T07:57:26;10.02;;;7.63;;
17927;SDS011;9089;58.396;15.544;2022-07-19T07:59:52;7.82;;;7.03;;
17927;SDS011;9089;58.396;15.544;2022-07-19T08:02:17;15.55;;;6.88;;
17927;SDS011;9089;58.396;15.544;2022-07-19T08:04:43;11.07;;;6.40;;
17927;SDS011;9089;58.396;15.544;2022-07-19T08:07:09;12.60;;;7.55;;
17927;SDS011;9089;58.396;15.544;2022-07-19T08:09:35;9.73;;;6.82;;
17927;SDS011;9089;58.396;15.544;2022-07-19T08:12:02;9.75;;;7.20;;
17927;SDS011;9089;58.396;15.544;2022-07-19T08:14:28;11.32;;;7.38;;
17927;SDS011;9089;58.396;15.544;2022-07-19T08:16:54;10.75;;;6.88;;
17927;SDS011;9089;58.396;15.544;2022-07-19T08:19:19;10.73;;;6.78;;
17927;SDS011;9089;58.396;15.544;2022-07-19T08:21:45;10.35;;;6.97;;
17927;SDS011;9089;58.396;15.544;2022-07-19T08:24:11;10.18;;;6.65;;
17927;SDS011;9089;58.396;15.544;2022-07-19T08:26:36;9.75;;;6.88;;
17927;SDS011;9089;58.396;15.544;2022-07-19T08:29:03;9.73;;;7.00;;
17927;SDS011;9089;58.396;15.544;2022-07-19T08:31:29;9.80;;;6.57;;
17927;SDS011;9089;58.396;15.544;2022-07-19T08:33:55;8.38;;;7.40;;
17927;SDS011;9089;58.396;15.544;2022-07-19T08:36:21;9.38;;;6.85;;
17927;SDS011;9089;58.396;15.544;2022-07-19T08:38:46;11.82;;;7.93;;
17927;SDS011;9089;58.396;15.544;2022-07-19T08:41:13;9.80;;;8.20;;
17927;SDS011;9089;58.396;15.544;2022-07-19T08:43:40;11.32;;;7.35;;
17927;SDS011;9089;58.396;15.544;2022-07-19T08:46:07;9.57;;;7.65;;
17927;SDS011;9089;58.396;15.544;2022-07-19T08:48:33;9.48;;;7.32;;
17927;SDS011;9089;58.396;15.544;2022-07-19T08:51:01;10.90;;;7.72;;
17927;SDS011;9089;58.396;15.544;2022-07-19T08:53:30;9.50;;;7.00;;
17927;SDS011;9089;58.396;15.544;2022-07-19T08:55:57;10.55;;;7.03;;
17927;SDS011;9089;58.396;15.544;2022-07-19T08:58:23;9.18;;;6.93;;
17927;SDS011;9089;58.396;15.544;2022-07-19T09:00:49;9.60;;;6.70;;
17927;SDS011;9089;58.396;15.544;2022-07-19T09:03:16;11.98;;;7.47;;
17927;SDS011;9089;58.396;15.544;2022-07-19T09:05:42;8.32;;;7.32;;
17927;SDS011;9089;58.396;15.544;2022-07-19T09:08:09;12.20;;;7.38;;
17927;SDS011;9089;58.396;15.544;2022-07-19T09:10:36;9.10;;;7.35;;
17927;SDS011;9089;58.396;15.544;2022-07-19T09:13:04;7.88;;;7.00;;
17927;SDS011;9089;58.396;15.544;2022-07-19T09:15:36;8.48;;;7.05;;
17927;SDS011;9089;58.396;15.544;2022-07-19T09:18:10;10.05;;;7.47;;
17927;SDS011;9089;58.396;15.544;2022-07-19T09:20:39;8.38;;;7.05;;
17927;SDS011;9089;58.396;15.544;2022-07-19T09:23:06;9.80;;;6.63;;
17927;SDS011;9089;58.396;15.544;2022-07-19T09:25:35;6.60;;;5.88;;
17927;SDS011;9089;58.396;15.544;2022-07-19T09:28:02;8.32;;;6.05;;
17927;SDS011;9089;58.396;15.544;2022-07-19T09:30:32;8.40;;;6.45;;
17927;SDS011;9089;58.396;15.544;2022-07-19T09:33:04;9.15;;;5.93;;
17927;SDS011;9089;58.396;15.544;2022-07-19T09:35:35;9.90;;;6.43;;
17927;SDS011;9089;58.396;15.544;2022-07-19T09:41:07;8.70;;;6.40;;
17927;SDS011;9089;58.396;15.544;2022-07-19T09:43:47;9.25;;;6.90;;
17927;SDS011;9089;58.396;15.544;2022-07-19T09:46:26;9.98;;;6.57;;
17927;SDS011;9089;58.396;15.544;2022-07-19T09:48:53;7.07;;;6.20;;
17927;SDS011;9089;58.396;15.544;2022-07-19T09:51:19;8.65;;;5.82;;
17927;SDS011;9089;58.396;15.544;2022-07-19T09:53:47;8.77;;;6.63;;
17927;SDS011;9089;58.396;15.544;2022-07-19T09:56:14;9.43;;;6.80;;
17927;SDS011;9089;58.396;15.544;2022-07-19T09:58:41;7.65;;;5.65;;
17927;SDS011;9089;58.396;15.544;2022-07-19T10:01:08;8.57;;;6.55;;
17927;SDS011;9089;58.396;15.544;2022-07-19T10:03:34;7.97;;;6.20;;
17927;SDS011;9089;58.396;15.544;2022-07-19T10:06:00;8.15;;;6.53;;
17927;SDS011;9089;58.396;15.544;2022-07-19T10:08:26;7.40;;;5.78;;
17927;SDS011;9089;58.396;15.544;2022-07-19T10:10:54;9.80;;;7.28;;
17927;SDS011;9089;58.396;15.544;2022-07-19T10:13:19;8.02;;;6.32;;
17927;SDS011;9089;58.396;15.544;2022-07-19T10:15:45;9.85;;;6.22;;
17927;SDS011;9089;58.396;15.544;2022-07-19T10:18:17;7.75;;;6.07;;
17927;SDS011;9089;58.396;15.544;2022-07-19T10:20:49;7.38;;;5.78;;
17927;SDS011;9089;58.396;15.544;2022-07-19T10:23:16;10.18;;;6.10;;
17927;SDS011;9089;58.396;15.544;2022-07-19T10:25:51;6.85;;;6.03;;
17927;SDS011;9089;58.396;15.544;2022-07-19T10:28:31;7.72;;;5.35;;
17927;SDS011;9089;58.396;15.544;2022-07-19T10:30:58;7.68;;;5.35;;
17927;SDS011;9089;58.396;15.544;2022-07-19T10:33:25;5.43;;;4.90;;
17927;SDS011;9089;58.396;15.544;2022-07-19T10:35:53;6.43;;;4.53;;
17927;SDS011;9089;58.396;15.544;2022-07-19T10:38:19;8.13;;;5.18;;
17927;SDS011;9089;58.396;15.544;2022-07-19T10:40:46;5.60;;;4.90;;
17927;SDS011;9089;58.396;15.544;2022-07-19T10:43:13;5.72;;;4.10;;
17927;SDS011;9089;58.396;15.544;2022-07-19T10:45:41;4.85;;;3.78;;
17927;SDS011;9089;58.396;15.544;2022-07-19T10:48:12;7.40;;;4.15;;
17927;SDS011;9089;58.396;15.544;2022-07-19T10:50:49;8.75;;;4.80;;
17927;SDS011;9089;58.396;15.544;2022-07-19T10:56:20;7.72;;;3.75;;
17927;SDS011;9089;58.396;15.544;2022-07-19T10:58:47;6.95;;;4.05;;
17927;SDS011;9089;58.396;15.544;2022-07-19T11:01:15;8.90;;;4.05;;
17927;SDS011;9089;58.396;15.544;2022-07-19T11:03:44;6.75;;;4.03;;
17927;SDS011;9089;58.396;15.544;2022-07-19T11:06:09;6.28;;;4.20;;
17927;SDS011;9089;58.396;15.544;2022-07-19T11:08:44;6.85;;;4.05;;
17927;SDS011;9089;58.396;15.544;2022-07-19T11:11:10;5.32;;;3.90;;
17927;SDS011;9089;58.396;15.544;2022-07-19T11:13:38;5.60;;;3.72;;
17927;SDS011;9089;58.396;15.544;2022-07-19T11:16:04;5.70;;;3.67;;
17927;SDS011;9089;58.396;15.544;2022-07-19T11:18:32;3.50;;;3.03;;
17927;SDS011;9089;58.396;15.544;2022-07-19T11:20:58;6.72;;;3.58;;
17927;SDS011;9089;58.396;15.544;2022-07-19T11:23:27;6.47;;;3.55;;
17927;SDS011;9089;58.396;15.544;2022-07-19T11:26:04;7.47;;;3.60;;
17927;SDS011;9089;58.396;15.544;2022-07-19T11:28:31;4.70;;;3.30;;
17927;SDS011;9089;58.396;15.544;2022-07-19T11:30:57;5.18;;;3.08;;
17927;SDS011;9089;58.396;15.544;2022-07-19T11:33:23;5.00;;;2.80;;
17927;SDS011;9089;58.396;15.544;2022-07-19T11:35:53;3.70;;;2.85;;
17927;SDS011;9089;58.396;15.544;2022-07-19T11:38:20;4.97;;;3.30;;
17927;SDS011;9089;58.396;15.544;2022-07-19T11:40:46;6.82;;;2.72;;
17927;SDS011;9089;58.396;15.544;2022-07-19T11:43:12;5.40;;;2.80;;
17927;SDS011;9089;58.396;15.544;2022-07-19T11:45:41;3.55;;;2.67;;
17927;SDS011;9089;58.396;15.544;2022-07-19T11:48:08;4.20;;;2.55;;
17927;SDS011;9089;58.396;15.544;2022-07-19T11:50:34;3.40;;;2.30;;
17927;SDS011;9089;58.396;15.544;2022-07-19T11:53:01;3.30;;;2.60;;
17927;SDS011;9089;58.396;15.544;2022-07-19T11:55:28;2.88;;;1.95;;
17927;SDS011;9089;58.396;15.544;2022-07-19T11:57:54;3.42;;;2.28;;
17927;SDS011;9089;58.396;15.544;2022-07-19T12:00:22;3.88;;;2.55;;
17927;SDS011;9089;58.396;15.544;2022-07-19T12:02:55;4.30;;;2.95;;
17927;SDS011;9089;58.396;15.544;2022-07-19T12:05:22;4.88;;;2.90;;
17927;SDS011;9089;58.396;15.544;2022-07-19T12:07:50;3.45;;;2.13;;
17927;SDS011;9089;58.396;15.544;2022-07-19T12:13:10;2.58;;;2.25;;
17927;SDS011;9089;58.396;15.544;2022-07-19T12:15:44;5.15;;;2.30;;
17927;SDS011;9089;58.396;15.544;2022-07-19T12:18:10;2.35;;;2.10;;
17927;SDS011;9089;58.396;15.544;2022-07-19T12:20:38;2.60;;;2.13;;
17927;SDS011;9089;58.396;15.544;2022-07-19T12:23:10;2.65;;;2.00;;
17927;SDS011;9089;58.396;15.544;2022-07-19T12:25:37;3.20;;;2.15;;
17927;SDS011;9089;58.396;15.544;2022-07-19T12:28:04;4.85;;;2.20;;
17927;SDS011;9089;58.396;15.544;2022-07-19T12:30:30;3.75;;;2.38;;
17927;SDS011;9089;58.396;15.544;2022-07-19T12:33:04;3.42;;;2.00;;
17927;SDS011;9089;58.396;15.544;2022-07-19T12:35:40;2.45;;;2.17;;
17927;SDS011;9089;58.396;15.544;2022-07-19T12:38:07;2.58;;;2.20;;
17927;SDS011;9089;58.396;15.544;2022-07-19T12:40:34;2.10;;;1.80;;
17927;SDS011;9089;58.396;15.544;2022-07-19T12:43:01;2.33;;;2.13;;
17927;SDS011;9089;58.396;15.544;2022-07-19T12:45:32;3.28;;;1.80;;
17927;SDS011;9089;58.396;15.544;2022-07-19T12:47:59;2.50;;;1.95;;
17927;SDS011;9089;58.396;15.544;2022-07-19T12:50:27;3.88;;;2.00;;
17927;SDS011;9089;58.396;15.544;2022-07-19T12:52:54;3.78;;;2.20;;
17927;SDS011;9089;58.396;15.544;2022-07-19T12:55:22;2.42;;;2.03;;
17927;SDS011;9089;58.396;15.544;2022-07-19T12:57:49;2.10;;;1.90;;
17927;SDS011;9089;58.396;15.544;2022-07-19T13:00:16;2.92;;;1.88;;
17927;SDS011;9089;58.396;15.544;2022-07-19T13:02:45;3.13;;;1.90;;
17927;SDS011;9089;58.396;15.544;2022-07-19T13:05:12;2.45;;;1.98;;
17927;SDS011;9089;58.396;15.544;2022-07-19T13:07:38;3.13;;;1.92;;
17927;SDS011;9089;58.396;15.544;2022-07-19T13:10:05;3.10;;;2.17;;
17927;SDS011;9089;58.396;15.544;2022-07-19T13:12:32;3.33;;;2.03;;
17927;SDS011;9089;58.396;15.544;2022-07-19T13:14:58;2.97;;;2.03;;
17927;SDS011;9089;58.396;15.544;2022-07-19T13:17:23;2.50;;;1.92;;
17927;SDS011;9089;58.396;15.544;2022-07-19T13:19:50;2.72;;;2.28;;
17927;SDS011;9089;58.396;15.544;2022-07-19T13:22:16;1.77;;;1.67;;
17927;SDS011;9089;58.396;15.544;2022-07-19T13:24:43;2.53;;;2.00;;
17927;SDS011;9089;58.396;15.544;2022-07-19T13:27:08;3.42;;;2.08;;
17927;SDS011;9089;58.396;15.544;2022-07-19T13:29:34;2.88;;;2.03;;
17927;SDS011;9089;58.396;15.544;2022-07-19T13:32:00;1.60;;;1.50;;
17927;SDS011;9089;58.396;15.544;2022-07-19T13:34:27;2.80;;;1.60;;
17927;SDS011;9089;58.396;15.544;2022-07-19T13:36:54;2.03;;;1.70;;
17927;SDS011;9089;58.396;15.544;2022-07-19T13:39:20;3.00;;;1.52;;
17927;SDS011;9089;58.396;15.544;2022-07-19T13:41:46;2.38;;;1.83;;
17927;SDS011;9089;58.396;15.544;2022-07-19T13:44:12;1.90;;;1.80;;
17927;SDS011;9089;58.396;15.544;2022-07-19T13:46:38;1.90;;;1.45;;
17927;SDS011;9089;58.396;15.544;2022-07-19T13:49:04;1.95;;;1.63;;
17927;SDS011;9089;58.396;15.544;2022-07-19T13:51:30;1.70;;;1.50;;
17927;SDS011;9089;58.396;15.544;2022-07-19T13:53:58;2.30;;;1.77;;
17927;SDS011;9089;58.396;15.544;2022-07-19T13:56:24;2.00;;;1.90;;
17927;SDS011;9089;58.396;15.544;2022-07-19T13:58:50;2.88;;;1.40;;
17927;SDS011;9089;58.396;15.544;2022-07-19T14:01:16;1.92;;;1.73;;
17927;SDS011;9089;58.396;15.544;2022-07-19T14:03:42;2.20;;;1.67;;
17927;SDS011;9089;58.396;15.544;2022-07-19T14:06:08;3.70;;;1.65;;
17927;SDS011;9089;58.396;15.544;2022-07-19T14:08:33;2.33;;;1.83;;
17927;SDS011;9089;58.396;15.544;2022-07-19T14:11:01;2.08;;;1.52;;
17927;SDS011;9089;58.396;15.544;2022-07-19T14:13:27;2.10;;;1.70;;
17927;SDS011;9089;58.396;15.544;2022-07-19T14:15:53;2.83;;;1.60;;
17927;SDS011;9089;58.396;15.544;2022-07-19T14:18:18;1.75;;;1.65;;
17927;SDS011;9089;58.396;15.544;2022-07-19T14:20:44;2.97;;;1.80;;
17927;SDS011;9089;58.396;15.544;2022-07-19T14:23:10;1.98;;;1.60;;
17927;SDS011;9089;58.396;15.544;2022-07-19T14:25:37;1.77;;;1.58;;
17927;SDS011;9089;58.396;15.544;2022-07-19T14:28:05;1.50;;;1.40;;
17927;SDS011;9089;58.396;15.544;2022-07-19T14:30:31;1.75;;;1.40;;
17927;SDS011;9089;58.396;15.544;2022-07-19T14:32:57;1.52;;;1.40;;
17927;SDS011;9089;58.396;15.544;2022-07-19T14:35:22;1.83;;;1.40;;
17927;SDS011;9089;58.396;15.544;2022-07-19T14:37:48;1.73;;;1.55;;
17927;SDS011;9089;58.396;15.544;2022-07-19T14:40:14;1.73;;;1.60;;
17927;SDS011;9089;58.396;15.544;2022-07-19T14:42:40;2.33;;;1.27;;
17927;SDS011;9089;58.396;15.544;2022-07-19T14:45:08;1.63;;;1.52;;
17927;SDS011;9089;58.396;15.544;2022-07-19T14:47:35;1.70;;;1.60;;
17927;SDS011;9089;58.396;15.544;2022-07-19T14:50:02;1.65;;;1.50;;